Due to severe server failure at the provider, not all demo sites are operational. Will take some days to rebuilt everything.

Demonstration site - Click on the  for more information

This is an optional block. Switch it on/off in your settings-file: $SITE['bannerTop'] = false; or $SITE['bannerBottom'] = false;

You can display ads, any other important text or photo’s using text / html or PHP code.

You can place one or more at the top and or bottom and it can all be different for content / size .



Visit our other weather sites:

Template documentation
and downloads

And another site



Nearby METAR Reports

   
EBAW - Antwerp
Updated: 12-12-2019 17:50
Mostly Cloudy  
Mostly Cloudy  
   Wind: SSE 27.8 km/h
Wind: SSE 27.8 km/h
Temperature: 5°C
Wind Chill: 0°C
Dew Point: 1°C
Humidity: 76%
Barometer: 991 hPa
Clouds: Mostly Cloudy
Visibility: More than 10 km
Cloud details: Few Clouds 2500 ft,
Mostly Cloudy 2800 ft
EBAW 121650Z 16015KT 9999 FEW025 BKN028 05/01 Q0991 TEMPO 17015G26KT
EBLG - Liège
Updated: 12-12-2019 17:50
Partly Cloudy  
Partly Cloudy  
   Wind: South 31.5 km/h<br />Gust to 31.5 km/h
Wind: South 31.5 km/h
Gust to 31.5 km/h
Temperature: 3°C
Wind Chill: -3°C
Dew Point: 0°C
Humidity: 81%
Barometer: 993 hPa
Clouds: Partly Cloudy
Visibility: More than 10 km
Cloud details: Partly Cloudy 2200 ft
EBLG 121650Z 17017G27KT 9999 SCT022 03/M00 Q0993 TEMPO 19017G27KT
EBCV - Mons/Bergen
Updated: 12-12-2019 15:55
NOT Current
  
  
   Wind: South 33.3 km/h
Wind: South 33.3 km/h
Temperature: 5°C
Wind Chill: 0°C
Dew Point: 2°C
Humidity: 81%
Barometer: 996 hPa
EBCV 121455Z AUTO 17018KT //// /// 05/02 Q0996
EHBK - Maastricht
Updated: 12-12-2019 17:55
Partly Cloudy  
Partly Cloudy  
   Wind: South 20.4 km/h
Wind: South 20.4 km/h
Temperature: 4°C
Wind Chill: 0°C
Dew Point: 0°C
Humidity: 75%
Barometer: 993 hPa
Clouds: Partly Cloudy
Visibility: More than 10 km
Cloud details: Partly Cloudy ft
EHBK 121655Z AUTO 18011KT 160V220 9999 NSC 04/00 Q0993 NOSIG
ELLX - Luxemburg
Updated: 12-12-2019 17:50
Mostly Cloudy  
Mostly Cloudy  
   Wind: South 22.2 km/h
Wind: South 22.2 km/h
Temperature: 2°C
Wind Chill: -3°C
Dew Point: 0°C
Humidity: 87%
Barometer: 996 hPa
Clouds: Mostly Cloudy
Visibility: More than 10 km
Cloud details: Partly Cloudy 1500 ft,
Mostly Cloudy 2000 ft
ELLX 121650Z 17012KT 150V210 9999 SCT015 BKN020 02/M00 Q0996 NOSIG
EBOS - Oostende
Updated: 12-12-2019 17:50
Mostly Cloudy  
Mostly Cloudy  
   Wind: South 38.9 km/h
Wind: South 38.9 km/h
Temperature: 5°C
Wind Chill: -1°C
Dew Point: 3°C
Humidity: 87%
Barometer: 987 hPa
Clouds: Mostly Cloudy
Visibility: More than 10 km
Cloud details: Few Clouds 700 ft,
Mostly Cloudy 900 ft
EBOS 121650Z 17021KT 9999 FEW007 BKN009 05/03 Q0987 TEMPO 17022G35KT 4000 RA

Script developed by  Saratoga-weather.org Adapted for the template by  Weerstation Leuven

This is an optional block. Switch it on/off in your settings-file: $SITE['bannerTop'] = false; or $SITE['bannerBottom'] = false;

You can display ads, any other important text or photo’s using text / html or PHP code.

You can place one or more at the top and or bottom and it can all be different for content / size .